createdAt,value
2019-05-26T00:00:28.551Z,101641.87
2019-05-26T00:02:58.791Z,101641.36
2019-05-26T00:05:28.961Z,101634.03
2019-05-26T00:07:59.195Z,101620.47
2019-05-26T00:10:29.336Z,101627.00
2019-05-26T00:12:59.468Z,101618.25
2019-05-26T00:15:29.698Z,101615.03
2019-05-26T00:17:59.879Z,101615.06
2019-05-26T00:20:30.069Z,101603.56
2019-05-26T00:23:00.232Z,101600.04
2019-05-26T00:25:30.444Z,101601.08
2019-05-26T00:28:00.721Z,101598.98
2019-05-26T00:30:30.800Z,101593.39
2019-05-26T00:33:01.001Z,101587.31
2019-05-26T00:35:31.282Z,101589.25
2019-05-26T00:38:01.546Z,101592.14
2019-05-26T00:40:31.741Z,101591.32
2019-05-26T00:43:01.916Z,101588.45
2019-05-26T00:45:32.157Z,101585.95
2019-05-26T00:48:02.387Z,101585.28
2019-05-26T00:50:32.536Z,101578.98
2019-05-26T00:53:02.738Z,101573.38
2019-05-26T00:55:33.073Z,101569.25
2019-05-26T00:58:04.375Z,101563.89
2019-05-26T01:00:41.890Z,101565.47
2019-05-26T01:03:12.266Z,101567.98
2019-05-26T01:05:42.505Z,101567.41
2019-05-26T01:08:12.746Z,101560.33
2019-05-26T01:10:42.939Z,101557.78
2019-05-26T01:13:13.134Z,101554.70
2019-05-26T01:15:43.522Z,101555.72
2019-05-26T01:18:13.786Z,101560.55
2019-05-26T01:20:44.009Z,101548.76
2019-05-26T01:23:14.184Z,101549.41
2019-05-26T01:25:44.727Z,101543.58
2019-05-26T01:28:15.000Z,101539.91
2019-05-26T01:30:45.428Z,101537.28
2019-05-26T01:33:15.661Z,101534.64
2019-05-26T01:35:46.854Z,101524.78
2019-05-26T01:38:24.101Z,101526.39
2019-05-26T01:40:51.964Z,101528.70
2019-05-26T01:43:22.173Z,101532.13
2019-05-26T01:45:52.301Z,101528.23
2019-05-26T01:48:22.501Z,101527.06
2019-05-26T01:50:52.724Z,101521.47
2019-05-26T01:53:23.004Z,101515.61
2019-05-26T01:55:53.232Z,101512.95
2019-05-26T01:58:23.471Z,101514.89
2019-05-26T02:00:55.767Z,101508.02
2019-05-26T02:03:27.009Z,101508.23
2019-05-26T02:05:57.298Z,101506.16
2019-05-26T02:08:38.844Z,101499.96
2019-05-26T02:10:59.502Z,101493.17
2019-05-26T02:13:29.653Z,101493.04
2019-05-26T02:15:59.909Z,101485.23
2019-05-26T02:18:31.728Z,101490.72
2019-05-26T02:21:01.851Z,101485.41
2019-05-26T02:23:32.053Z,101487.57
2019-05-26T02:26:02.226Z,101480.72
2019-05-26T02:28:32.557Z,101482.77
2019-05-26T02:31:02.762Z,101478.94
2019-05-26T02:33:32.978Z,101474.87
2019-05-26T02:36:03.130Z,101480.67
2019-05-26T02:38:35.782Z,101472.45
2019-05-26T02:41:06.256Z,101476.98
2019-05-26T02:43:36.405Z,101480.68
2019-05-26T02:46:06.720Z,101476.41
2019-05-26T02:48:36.908Z,101470.97
2019-05-26T02:51:08.064Z,101469.34
2019-05-26T02:53:39.826Z,101467.34
2019-05-26T02:56:10.032Z,101469.95
2019-05-26T02:58:40.855Z,101463.69
2019-05-26T03:01:11.081Z,101466.64
2019-05-26T03:03:41.291Z,101467.24
2019-05-26T03:06:13.049Z,101463.76
2019-05-26T03:08:44.851Z,101458.17
2019-05-26T03:11:16.345Z,101449.98
2019-05-26T03:13:48.681Z,101447.68
2019-05-26T03:16:21.229Z,101441.20
2019-05-26T03:18:53.150Z,101439.78
2019-05-26T03:21:25.073Z,101434.10
2019-05-26T03:23:55.236Z,101437.90
2019-05-26T03:26:28.391Z,101425.55
2019-05-26T03:28:58.531Z,101428.38
2019-05-26T03:31:28.736Z,101421.02
2019-05-26T03:33:58.875Z,101429.03
2019-05-26T03:36:29.046Z,101425.73
2019-05-26T03:38:59.304Z,101422.97
2019-05-26T03:41:29.522Z,101415.72
2019-05-26T03:43:59.813Z,101415.98
2019-05-26T03:46:30.014Z,101417.59
2019-05-26T03:49:00.210Z,101413.45
2019-05-26T03:51:30.364Z,101412.06
2019-05-26T03:54:00.533Z,101405.38
2019-05-26T03:56:30.904Z,101405.45
2019-05-26T03:59:01.120Z,101402.16
2019-05-26T04:01:31.314Z,101388.49
2019-05-26T04:04:01.503Z,101392.86
2019-05-26T04:06:31.672Z,101398.97
2019-05-26T04:09:01.832Z,101394.02
2019-05-26T04:11:33.231Z,101386.88
2019-05-26T04:14:03.304Z,101385.66
2019-05-26T04:16:33.427Z,101380.52
2019-05-26T04:19:04.422Z,101379.55
2019-05-26T04:21:34.540Z,101376.37
2019-05-26T04:24:04.676Z,101377.02
2019-05-26T04:26:34.883Z,101379.47
2019-05-26T04:29:05.158Z,101382.81
2019-05-26T04:31:35.312Z,101383.91
2019-05-26T04:34:05.576Z,101384.75
2019-05-26T04:36:36.680Z,101376.11
2019-05-26T04:39:07.761Z,101378.29
2019-05-26T04:41:38.047Z,101377.27
2019-05-26T04:44:10.573Z,101371.96
2019-05-26T04:46:40.833Z,101364.47
2019-05-26T04:49:11.017Z,101370.58
2019-05-26T04:51:41.177Z,101365.05
2019-05-26T04:54:11.378Z,101369.84
2019-05-26T04:56:41.573Z,101369.61
2019-05-26T04:59:11.792Z,101364.38
2019-05-26T05:01:41.976Z,101373.09
2019-05-26T05:04:12.154Z,101368.66
2019-05-26T05:06:42.410Z,101363.19
2019-05-26T05:09:12.540Z,101367.02
2019-05-26T05:11:42.785Z,101356.27
2019-05-26T05:14:12.945Z,101353.95
2019-05-26T05:16:43.183Z,101352.89
2019-05-26T05:19:13.432Z,101347.42
2019-05-26T05:21:43.610Z,101346.73
2019-05-26T05:24:13.807Z,101347.09
2019-05-26T05:26:43.946Z,101349.78
2019-05-26T05:29:14.144Z,101343.64
2019-05-26T05:31:44.365Z,101341.09
2019-05-26T05:34:14.541Z,101331.52
2019-05-26T05:36:44.719Z,101330.17
2019-05-26T05:39:14.824Z,101330.52
2019-05-26T05:41:45.086Z,101323.19
2019-05-26T05:44:15.240Z,101316.48
2019-05-26T05:46:45.382Z,101319.72
2019-05-26T05:49:15.513Z,101317.41
2019-05-26T05:51:45.742Z,101315.92
2019-05-26T05:54:15.877Z,101315.90
2019-05-26T05:56:46.114Z,101317.46
2019-05-26T05:59:16.327Z,101311.30
2019-05-26T06:01:46.596Z,101310.22
2019-05-26T06:04:16.926Z,101308.89
2019-05-26T06:06:47.305Z,101315.41
2019-05-26T06:09:17.586Z,101312.09
2019-05-26T06:11:47.841Z,101315.98
2019-05-26T06:14:18.049Z,101312.33
2019-05-26T06:16:48.193Z,101314.16
2019-05-26T06:19:18.594Z,101311.57
2019-05-26T06:21:48.804Z,101309.23
2019-05-26T06:24:19.106Z,101313.05
2019-05-26T06:26:49.381Z,101299.86
2019-05-26T06:29:19.774Z,101295.92
2019-05-26T06:31:50.329Z,101312.31
2019-05-26T06:34:20.602Z,101295.91
2019-05-26T06:36:52.385Z,101303.12
2019-05-26T06:39:22.504Z,101303.38
2019-05-26T06:41:54.372Z,101315.63
2019-05-26T06:44:24.595Z,101312.61
2019-05-26T06:47:25.441Z,101318.59
2019-05-26T06:50:51.239Z,101321.36
2019-05-26T06:53:44.265Z,101321.14
2019-05-26T06:56:14.528Z,101315.82
2019-05-26T06:58:44.744Z,101310.92
2019-05-26T07:01:15.932Z,101313.77
2019-05-26T07:03:48.133Z,101311.17
2019-05-26T07:06:18.370Z,101320.88
2019-05-26T07:08:48.526Z,101317.41
2019-05-26T07:11:19.357Z,101321.16
2019-05-26T07:13:49.602Z,101313.76
2019-05-26T07:16:36.506Z,101328.94
2019-05-26T07:18:51.645Z,101321.56
2019-05-26T07:21:23.477Z,101318.54
2019-05-26T07:23:57.766Z,101321.78
2019-05-26T07:26:31.070Z,101319.18
2019-05-26T07:29:01.248Z,101314.81
2019-05-26T07:31:32.343Z,101315.68
2019-05-26T07:34:02.678Z,101321.53
2019-05-26T07:36:32.921Z,101320.48
2019-05-26T07:39:03.113Z,101319.73
2019-05-26T07:41:36.471Z,101313.76
2019-05-26T07:44:06.689Z,101303.46
2019-05-26T07:47:16.874Z,101316.08
2019-05-26T07:49:54.971Z,101310.44
2019-05-26T07:52:25.190Z,101314.60
2019-05-26T07:54:55.503Z,101319.56
2019-05-26T07:57:25.688Z,101308.89
2019-05-26T07:59:57.641Z,101312.73
2019-05-26T08:02:31.438Z,101301.07
2019-05-26T08:05:01.622Z,101298.42
2019-05-26T08:07:32.039Z,101299.79
2019-05-26T08:10:02.320Z,101299.67
2019-05-26T08:12:33.632Z,101295.09
2019-05-26T08:15:03.772Z,101299.84
2019-05-26T08:17:34.119Z,101297.31
2019-05-26T08:20:04.967Z,101294.51
2019-05-26T08:22:35.304Z,101299.93
2019-05-26T08:25:05.817Z,101294.73
2019-05-26T08:27:36.083Z,101293.56
2019-05-26T08:30:07.667Z,101293.75
2019-05-26T08:32:40.646Z,101298.70
2019-05-26T08:35:16.239Z,101289.17
2019-05-26T08:37:53.881Z,101287.19
2019-05-26T08:40:24.353Z,101281.63
2019-05-26T08:46:33.662Z,101282.01
2019-05-26T08:49:03.897Z,101287.21
2019-05-26T08:51:35.694Z,101286.77
2019-05-26T08:54:06.059Z,101290.56
2019-05-26T08:56:36.258Z,101286.93
2019-05-26T08:59:06.606Z,101273.80
2019-05-26T09:01:38.034Z,101282.14
2019-05-26T09:04:08.251Z,101274.48
2019-05-26T09:06:38.495Z,101274.74
2019-05-26T09:09:08.672Z,101273.53
2019-05-26T09:11:38.951Z,101262.56
2019-05-26T09:14:09.266Z,101266.69
2019-05-26T09:16:41.162Z,101273.89
2019-05-26T09:19:12.591Z,101269.78
2019-05-26T09:21:42.859Z,101261.48
2019-05-26T09:24:13.057Z,101266.55
2019-05-26T09:26:46.481Z,101261.69
2019-05-26T09:29:16.649Z,101262.22
2019-05-26T09:31:46.919Z,101253.84
2019-05-26T09:34:17.273Z,101249.89
2019-05-26T09:36:47.619Z,101256.63
2019-05-26T09:39:17.728Z,101259.68
2019-05-26T09:41:48.535Z,101262.36
2019-05-26T09:44:18.749Z,101266.01
2019-05-26T09:46:48.987Z,101268.19
2019-05-26T09:49:19.163Z,101281.69
2019-05-26T09:51:50.471Z,101272.41
2019-05-26T09:54:20.696Z,101268.16
2019-05-26T09:56:50.889Z,101276.50
2019-05-26T09:59:21.074Z,101272.41
2019-05-26T10:01:53.019Z,101277.37
2019-05-26T10:04:24.810Z,101265.30
2019-05-26T10:06:54.962Z,101270.05
2019-05-26T10:09:25.231Z,101270.43
2019-05-26T10:11:55.496Z,101260.25
2019-05-26T10:14:25.811Z,101268.08
2019-05-26T10:16:56.024Z,101270.41
2019-05-26T10:19:27.422Z,101260.02
2019-05-26T10:21:58.684Z,101260.92
2019-05-26T10:24:28.919Z,101265.06
2019-05-26T10:26:59.228Z,101254.73
2019-05-26T10:29:29.500Z,101249.47
2019-05-26T10:32:00.070Z,101253.63
2019-05-26T10:34:30.275Z,101250.20
2019-05-26T10:37:00.465Z,101249.63
2019-05-26T10:39:30.688Z,101246.25
2019-05-26T10:42:04.235Z,101241.53
2019-05-26T10:44:34.164Z,101247.52
2019-05-26T10:47:04.366Z,101231.17
2019-05-26T10:49:34.589Z,101236.92
2019-05-26T10:52:04.834Z,101225.47
2019-05-26T10:54:35.147Z,101218.45
2019-05-26T10:57:05.489Z,101221.02
2019-05-26T10:59:36.810Z,101219.53
2019-05-26T11:02:07.248Z,101215.07
2019-05-26T11:04:38.281Z,101210.69
2019-05-26T11:07:08.569Z,101212.94
2019-05-26T11:09:38.770Z,101222.12
2019-05-26T11:12:16.787Z,101219.42
2019-05-26T11:14:46.980Z,101220.19
2019-05-26T11:17:17.199Z,101218.94
2019-05-26T11:20:03.566Z,101221.70
2019-05-26T11:22:35.267Z,101221.28
2019-05-26T11:25:06.277Z,101218.27
2019-05-26T11:27:36.496Z,101217.70
2019-05-26T11:30:08.571Z,101214.19
2019-05-26T11:32:38.788Z,101221.70
2019-05-26T11:35:10.076Z,101215.14
2019-05-26T11:37:41.210Z,101213.30
2019-05-26T11:40:14.962Z,101205.53
2019-05-26T11:42:45.398Z,101203.55
2019-05-26T11:45:17.535Z,101202.10
2019-05-26T11:47:47.842Z,101193.50
2019-05-26T11:50:18.427Z,101194.30
2019-05-26T11:52:50.410Z,101180.16
2019-05-26T11:55:20.849Z,101184.09
2019-05-26T11:57:55.517Z,101185.55
2019-05-26T12:00:28.284Z,101190.89
2019-05-26T12:03:00.452Z,101174.67
2019-05-26T12:05:30.375Z,101177.58
2019-05-26T12:08:00.526Z,101181.97
2019-05-26T12:10:30.768Z,101176.17
2019-05-26T12:13:01.043Z,101165.30
2019-05-26T12:15:31.500Z,101176.88
2019-05-26T12:18:03.564Z,101185.00
2019-05-26T12:20:33.766Z,101184.67
2019-05-26T12:23:03.987Z,101173.41
2019-05-26T12:25:34.170Z,101169.83
2019-05-26T12:28:04.409Z,101169.73
2019-05-26T12:30:34.992Z,101168.23
2019-05-26T12:33:05.228Z,101161.59
2019-05-26T12:35:44.350Z,101161.19
2019-05-26T12:38:15.142Z,101163.19
2019-05-26T12:40:45.579Z,101150.42
2019-05-26T12:43:17.620Z,101149.31
2019-05-26T12:45:48.098Z,101152.53
2019-05-26T12:48:18.347Z,101165.02
2019-05-26T12:50:48.594Z,101145.23
2019-05-26T12:53:18.836Z,101136.16
2019-05-26T12:55:49.123Z,101139.19
2019-05-26T12:58:19.304Z,101137.91
2019-05-26T13:00:53.864Z,101137.16
2019-05-26T13:03:21.403Z,101132.45
2019-05-26T13:05:51.609Z,101128.40
2019-05-26T13:08:21.760Z,101107.70
2019-05-26T13:10:51.895Z,101108.25
2019-05-26T13:13:22.050Z,101093.98
2019-05-26T13:15:52.264Z,101094.70
2019-05-26T13:18:22.454Z,101089.81
2019-05-26T13:20:52.654Z,101088.08
2019-05-26T13:23:22.839Z,101097.04
2019-05-26T13:25:52.978Z,101090.55
2019-05-26T13:28:23.146Z,101112.06
2019-05-26T13:30:53.298Z,101120.85
2019-05-26T13:33:23.454Z,101119.76
2019-05-26T13:35:53.594Z,101118.95
2019-05-26T13:38:25.364Z,101118.95
2019-05-26T13:40:55.504Z,101118.61
2019-05-26T13:43:25.756Z,101121.83
2019-05-26T13:45:56.000Z,101127.23
2019-05-26T13:48:26.178Z,101125.64
2019-05-26T13:50:56.423Z,101120.86
2019-05-26T13:53:26.693Z,101123.46
2019-05-26T13:55:56.850Z,101115.11
2019-05-26T13:58:32.625Z,101114.31
2019-05-26T14:01:04.463Z,101119.42
2019-05-26T14:03:37.604Z,101110.12
2019-05-26T14:07:26.188Z,101115.50
2019-05-26T14:09:49.575Z,101110.75
2019-05-26T14:12:46.322Z,101105.98
2019-05-26T14:15:34.922Z,101102.03
2019-05-26T14:18:23.570Z,101099.66
2019-05-26T14:21:12.401Z,101104.21
2019-05-26T14:23:50.483Z,101096.05
2019-05-26T14:26:42.571Z,101096.30
2019-05-26T14:29:31.357Z,101079.39
2019-05-26T14:33:03.785Z,101086.57
2019-05-26T14:35:46.119Z,101080.59
2019-05-26T14:38:58.370Z,101098.87
2019-05-26T14:41:50.575Z,101080.03
2019-05-26T14:44:38.587Z,101082.02
2019-05-26T14:47:44.742Z,101077.84
2019-05-26T14:51:04.567Z,101084.37
2019-05-26T14:54:00.884Z,101079.03
2019-05-26T14:56:42.228Z,101072.88
2019-05-26T14:59:20.767Z,101068.33
2019-05-26T15:02:08.899Z,101061.75
2019-05-26T15:05:05.638Z,101084.61
2019-05-26T15:08:12.487Z,101073.88
2019-05-26T15:14:46.527Z,101065.13
2019-05-26T15:17:38.620Z,101072.67
2019-05-26T15:20:26.698Z,101074.08
2019-05-26T15:23:27.947Z,101075.48
2019-05-26T15:26:30.945Z,101061.00
2019-05-26T15:29:42.987Z,101078.98
2019-05-26T15:32:54.697Z,101052.59
2019-05-26T15:35:45.030Z,101053.19
2019-05-26T15:39:18.035Z,101053.02
2019-05-26T15:42:22.259Z,101046.45
2019-05-26T15:49:21.699Z,101043.25
2019-05-26T15:52:32.803Z,101040.04
2019-05-26T15:59:24.766Z,101032.02
2019-05-26T16:05:28.283Z,101025.51
2019-05-26T16:08:00.070Z,101027.47
2019-05-26T16:13:58.425Z,101025.25
2019-05-26T16:16:41.367Z,101025.99
2019-05-26T16:19:23.049Z,101029.64
2019-05-26T16:21:59.102Z,101015.13
2019-05-26T16:24:32.804Z,101018.37
2019-05-26T16:27:18.758Z,101020.55
2019-05-26T16:29:37.829Z,101027.84
2019-05-26T16:32:08.049Z,101020.36
2019-05-26T16:34:42.161Z,101005.06
2019-05-26T16:37:14.566Z,101011.64
2019-05-26T16:39:46.116Z,101021.95
2019-05-26T16:42:21.925Z,101016.87
2019-05-26T16:44:52.152Z,101016.97
2019-05-26T16:47:22.355Z,101014.59
2019-05-26T16:49:52.611Z,101013.77
2019-05-26T16:52:29.346Z,101014.52
2019-05-26T16:54:59.336Z,101015.88
2019-05-26T16:57:31.429Z,101021.17
2019-05-26T17:00:08.024Z,101007.45
2019-05-26T17:02:41.272Z,100995.14
2019-05-26T17:05:11.678Z,101008.23
2019-05-26T17:07:41.943Z,100998.08
2019-05-26T17:10:16.216Z,101017.56
2019-05-26T17:12:46.420Z,101033.33
2019-05-26T17:15:16.998Z,101023.52
2019-05-26T17:17:47.266Z,101030.48
2019-05-26T17:20:18.327Z,101028.98
2019-05-26T17:22:49.060Z,101040.83
2019-05-26T17:25:19.264Z,101030.40
2019-05-26T17:27:50.548Z,101015.77
2019-05-26T17:30:22.242Z,101018.36
2019-05-26T17:32:56.097Z,101013.22
2019-05-26T17:35:26.333Z,101001.50
2019-05-26T17:37:58.210Z,100993.74
2019-05-26T17:40:33.908Z,100987.84
2019-05-26T17:43:04.317Z,100984.99
2019-05-26T17:45:34.550Z,100987.41
2019-05-26T17:48:06.439Z,100987.58
2019-05-26T17:50:39.141Z,100992.81
2019-05-26T17:53:09.402Z,100975.73
2019-05-26T17:55:40.580Z,100984.25
2019-05-26T17:58:34.461Z,100979.24
2019-05-26T18:01:17.265Z,100972.45
2019-05-26T18:03:47.674Z,100969.45
2019-05-26T18:06:19.828Z,100968.83
2019-05-26T18:08:50.005Z,100963.70
2019-05-26T18:11:22.871Z,100964.58
2019-05-26T18:13:54.350Z,100961.23
2019-05-26T18:16:26.497Z,100966.28
2019-05-26T18:18:59.517Z,100965.79
2019-05-26T18:21:29.672Z,100967.03
2019-05-26T18:24:00.796Z,100966.48
2019-05-26T18:26:31.006Z,100966.81
2019-05-26T18:29:01.246Z,100951.73
2019-05-26T18:31:31.397Z,100951.42
2019-05-26T18:34:10.834Z,100957.27
2019-05-26T18:36:42.575Z,100952.49
2019-05-26T18:39:14.975Z,100956.47
2019-05-26T18:41:45.208Z,100944.84
2019-05-26T18:44:18.287Z,100946.75
2019-05-26T18:46:53.353Z,100952.36
2019-05-26T18:49:26.304Z,100942.28
2019-05-26T18:51:58.192Z,100936.31
2019-05-26T18:54:28.384Z,100932.18
2019-05-26T18:56:58.551Z,100937.29
2019-05-26T18:59:30.188Z,100937.88
2019-05-26T19:02:02.527Z,100919.30
2019-05-26T19:04:34.317Z,100917.55
2019-05-26T19:07:05.659Z,100921.81
2019-05-26T19:09:41.076Z,100901.97
2019-05-26T19:12:30.442Z,100915.42
2019-05-26T19:15:24.851Z,100914.93
2019-05-26T19:18:20.292Z,100916.80
2019-05-26T19:20:54.285Z,100920.94
2019-05-26T19:24:22.302Z,100912.27
2019-05-26T19:26:34.666Z,100916.00
2019-05-26T19:30:28.571Z,100903.81
2019-05-26T19:36:40.195Z,100945.15
2019-05-26T19:39:34.957Z,100962.56
2019-05-26T19:42:12.578Z,100968.50
2019-05-26T19:44:55.799Z,100967.66
2019-05-26T19:47:43.112Z,100972.31
2019-05-26T19:50:35.109Z,100986.44
2019-05-26T19:53:32.455Z,100976.84
2019-05-26T19:56:03.161Z,100972.06
2019-05-26T19:58:33.464Z,100975.73
2019-05-26T20:01:05.593Z,100973.95
2019-05-26T20:03:35.787Z,100976.14
2019-05-26T20:06:06.313Z,100980.77
2019-05-26T20:08:36.614Z,100987.62
2019-05-26T20:11:08.703Z,100983.94
2019-05-26T20:13:39.051Z,100979.97
2019-05-26T20:16:09.270Z,100982.10
2019-05-26T20:18:39.494Z,100979.92
2019-05-26T20:21:09.664Z,100978.59
2019-05-26T20:23:40.042Z,100985.16
2019-05-26T20:26:10.258Z,100983.41
2019-05-26T20:28:40.494Z,100982.39
2019-05-26T20:31:10.726Z,100987.50
2019-05-26T20:33:40.918Z,100989.25
2019-05-26T20:36:11.155Z,100988.09
2019-05-26T20:38:41.377Z,100987.62
2019-05-26T20:41:11.642Z,100995.97
2019-05-26T20:43:44.580Z,100995.98
2019-05-26T20:46:14.786Z,100999.36
2019-05-26T20:48:45.069Z,100996.20
2019-05-26T20:51:17.261Z,100995.98
2019-05-26T20:53:47.351Z,100991.84
2019-05-26T20:56:17.526Z,100989.13
2019-05-26T20:58:47.950Z,100994.08
2019-05-26T21:01:18.146Z,100993.27
2019-05-26T21:03:48.409Z,100995.23
2019-05-26T21:06:18.658Z,100984.80
2019-05-26T21:08:48.838Z,100982.22
2019-05-26T21:11:21.540Z,100970.36
2019-05-26T21:13:51.730Z,100971.21
2019-05-26T21:16:21.929Z,100973.92
2019-05-26T21:18:52.907Z,100972.37
2019-05-26T21:21:23.072Z,100973.98
2019-05-26T21:23:53.231Z,100960.95
2019-05-26T21:26:23.369Z,100968.89
2019-05-26T21:28:53.679Z,100968.09
2019-05-26T21:31:23.889Z,100974.02
2019-05-26T21:33:54.277Z,100973.61
2019-05-26T21:36:25.473Z,100976.78
2019-05-26T21:38:55.699Z,100978.56
2019-05-26T21:41:32.745Z,100973.98
2019-05-26T21:44:06.410Z,100970.45
2019-05-26T21:46:36.612Z,100971.80
2019-05-26T21:49:12.143Z,100973.03
2019-05-26T21:51:46.104Z,100979.14
2019-05-26T21:54:16.395Z,100968.23
2019-05-26T21:56:46.704Z,100974.37
2019-05-26T21:59:19.438Z,100977.27
2019-05-26T22:01:52.293Z,100982.66
2019-05-26T22:04:28.518Z,100982.89
2019-05-26T22:06:59.091Z,100974.73
2019-05-26T22:09:32.796Z,100978.88
2019-05-26T22:12:02.991Z,100976.11
2019-05-26T22:14:37.270Z,100968.58
2019-05-26T22:17:10.545Z,100978.83
2019-05-26T22:19:46.591Z,100973.92
2019-05-26T22:22:17.607Z,100970.98
2019-05-26T22:24:50.302Z,100973.25
2019-05-26T22:27:23.649Z,100969.33
2019-05-26T22:29:58.316Z,100978.25
2019-05-26T22:32:32.577Z,100980.79
2019-05-26T22:35:13.954Z,100975.34
2019-05-26T22:37:45.816Z,100972.63
2019-05-26T22:40:19.469Z,100967.84
2019-05-26T22:42:52.559Z,100966.98
2019-05-26T22:45:23.009Z,100972.64
2019-05-26T22:47:56.324Z,100970.69
2019-05-26T22:50:31.960Z,100963.64
2019-05-26T22:53:03.920Z,100966.55
2019-05-26T22:55:34.068Z,100963.20
2019-05-26T22:58:04.249Z,100955.88
2019-05-26T23:00:34.387Z,100955.20
2019-05-26T23:03:04.582Z,100963.73
2019-05-26T23:05:34.767Z,100962.69
2019-05-26T23:08:05.098Z,100961.72
2019-05-26T23:10:35.251Z,100963.48
2019-05-26T23:13:05.425Z,100966.13
2019-05-26T23:15:35.706Z,100965.59
2019-05-26T23:18:06.655Z,100965.75
2019-05-26T23:20:36.839Z,100969.45
2019-05-26T23:23:07.062Z,100969.58
2019-05-26T23:25:37.301Z,100965.75
2019-05-26T23:28:07.510Z,100956.79
2019-05-26T23:30:38.788Z,100955.58
2019-05-26T23:33:09.175Z,100944.20
2019-05-26T23:35:39.393Z,100945.47
2019-05-26T23:38:09.567Z,100944.38
2019-05-26T23:40:39.947Z,100949.48
2019-05-26T23:43:10.098Z,100950.92
2019-05-26T23:45:40.282Z,100950.48
2019-05-26T23:48:10.532Z,100950.23
2019-05-26T23:50:41.073Z,100947.99
2019-05-26T23:53:11.280Z,100949.25
2019-05-26T23:55:41.439Z,100961.73
2019-05-26T23:58:11.627Z,100969.83
